Time;durP1;ratioP1;P1;durP2;ratioP2;P2;SDS_P1;SDS_P2;PMS_P1;PMS_P2;Temp;Humidity;BMP_temperature;BMP_pressure;BME280_temperature;BME280_humidity;BME280_pressure;Samples;Min_cycle;Max_cycle;Signal;HPM_P1;HPM_P2
2023/08/16 00:02:54;;;;;;;8.50;6.70;;;;;;;23.83;48.94;100574.10;109924;1265;727675;-79
2023/08/16 00:06:21;;;;;;;8.10;7.30;;;;;;;23.29;50.15;100575.00;110646;1265;21986;-80
2023/08/16 00:13:33;;;;;;;8.90;7.00;;;;;;;22.82;51.46;100576.38;109861;1268;22399;-78
2023/08/16 00:16:30;;;;;;;9.30;7.00;;;;;;;22.70;51.77;100572.55;110082;1268;24344;-78
2023/08/16 00:20:35;;;;;;;12.10;7.60;;;;;;;22.66;51.81;100570.21;109991;1269;21979;-79
2023/08/16 00:24:06;;;;;;;10.00;7.40;;;;;;;22.63;51.93;100576.36;109870;1271;23679;-78
2023/08/16 00:27:30;;;;;;;8.30;7.40;;;;;;;22.59;51.96;100577.75;109532;1269;22373;-80
2023/08/16 00:31:02;;;;;;;12.70;7.20;;;;;;;22.54;51.97;100575.85;109261;1277;22078;-80
2023/08/16 00:34:08;;;;;;;8.20;7.30;;;;;;;22.51;51.86;100578.40;109185;1276;22452;-79
2023/08/16 00:37:28;;;;;;;8.40;7.60;;;;;;;22.47;51.92;100581.05;109541;1274;23734;-81
2023/08/16 00:39:59;;;;;;;10.90;7.80;;;;;;;22.43;52.04;100577.34;109400;1274;22031;-79
2023/08/16 00:43:23;;;;;;;10.50;7.90;;;;;;;22.39;52.10;100579.30;109407;1274;21999;-80
2023/08/16 00:47:31;;;;;;;10.40;7.80;;;;;;;22.28;52.30;100580.02;109240;1276;22285;-81
2023/08/16 00:50:48;;;;;;;8.70;7.70;;;;;;;22.17;52.91;100579.45;109783;1272;21999;-80
2023/08/16 00:54:00;;;;;;;;;;;;;;;;;;;;;
2023/08/16 00:56:57;;;;;;;9.60;8.60;;;;;;;22.10;53.42;100575.98;109134;1276;21955;-78
2023/08/16 01:00:29;;;;;;;;;;;;;;;;;;;;;
2023/08/16 01:03:52;;;;;;;;;;;;;;;;;;;;;
2023/08/16 01:07:00;;;;;;;9.90;8.70;;;;;;;22.00;54.30;100574.85;109717;1260;22836;-80
2023/08/16 01:10:08;;;;;;;10.60;8.30;;;;;;;21.98;54.45;100575.39;110062;1268;21975;-80
2023/08/16 01:14:24;;;;;;;11.80;7.90;;;;;;;21.94;54.65;100574.14;110173;1263;23954;-80
2023/08/16 01:17:43;;;;;;;10.50;8.20;;;;;;;21.91;54.82;100575.60;109418;1272;21990;-79
2023/08/16 01:20:50;;;;;;;11.00;8.50;;;;;;;21.90;55.07;100572.63;109026;1276;24333;-80
2023/08/16 01:24:08;;;;;;;11.00;8.80;;;;;;;21.89;55.08;100573.11;109572;1270;21977;-79
2023/08/16 01:26:45;;;;;;;15.10;8.20;;;;;;;21.85;55.21;100574.27;109659;1270;21989;-79
2023/08/16 01:29:46;;;;;;;11.70;8.60;;;;;;;21.81;55.31;100570.39;109925;1271;23349;-81
2023/08/16 01:32:47;;;;;;;10.80;8.90;;;;;;;21.78;55.47;100569.92;109586;1270;23133;-79
2023/08/16 01:35:24;;;;;;;10.60;8.30;;;;;;;21.74;55.53;100568.79;109113;1276;21997;-79
2023/08/16 01:38:25;;;;;;;9.90;7.60;;;;;;;21.71;55.69;100569.23;109144;1276;21984;-81
2023/08/16 01:45:16;;;;;;;9.00;7.90;;;;;;;21.63;56.09;100568.14;109051;1276;23728;-80
2023/08/16 01:48:28;;;;;;;16.50;9.60;;;;;;;21.60;56.17;100564.42;109263;1274;22060;-80
2023/08/16 01:52:07;;;;;;;9.30;8.30;;;;;;;21.57;56.17;100559.91;108742;1280;22007;-80
2023/08/16 01:55:11;;;;;;;9.80;8.80;;;;;;;21.54;56.32;100560.48;110133;1265;23028;-78
2023/08/16 01:58:12;;;;;;;12.00;8.80;;;;;;;21.57;56.45;100559.56;110338;1265;23087;-78
2023/08/16 02:01:26;;;;;;;9.80;8.80;;;;;;;21.59;56.53;100568.22;110395;1265;22004;-78
2023/08/16 02:04:12;;;;;;;9.20;7.90;;;;;;;21.63;56.33;100567.98;110377;1265;22053;-80
2023/08/16 02:07:03;;;;;;;;;;;;;;;21.65;56.21;100568.52;110057;1265;22023;-78
2023/08/16 02:10:06;;;;;;;9.50;8.20;;;;;;;21.54;56.30;100569.33;110940;1259;21979;-80
2023/08/16 02:12:42;;;;;;;10.30;8.00;;;;;;;21.55;56.22;100571.41;110301;1265;21993;-79
2023/08/16 02:16:03;;;;;;;11.90;8.60;;;;;;;21.53;56.13;100574.91;109719;1268;21996;-80
2023/08/16 02:18:42;;;;;;;11.40;9.10;;;;;;;21.52;56.09;100573.23;109884;1268;21982;-80
2023/08/16 02:21:56;;;;;;;11.10;8.70;;;;;;;21.52;56.01;100572.35;109850;1268;25091;-79
2023/08/16 02:25:04;;;;;;;9.10;8.30;;;;;;;21.50;56.14;100571.10;110199;1268;22123;-80
2023/08/16 02:28:07;;;;;;;13.50;9.50;;;;;;;21.45;56.20;100571.15;110151;1267;22441;-80
2023/08/16 02:31:05;;;;;;;12.80;9.20;;;;;;;21.44;56.27;100569.95;109850;1267;22003;-80
2023/08/16 02:34:00;;;;;;;11.50;8.70;;;;;;;21.43;56.30;100570.77;109315;1271;23634;-79
2023/08/16 02:37:00;;;;;;;10.80;8.70;;;;;;;21.41;56.34;100574.26;109623;1266;21994;-79
2023/08/16 02:39:50;;;;;;;11.70;9.20;;;;;;;21.38;56.39;100571.98;109503;1271;23051;-79
2023/08/16 02:42:34;;;;;;;9.70;8.80;;;;;;;21.38;56.43;100570.08;109616;1270;21990;-78
2023/08/16 02:45:21;;;;;;;9.60;8.70;;;;;;;21.38;56.43;100572.55;109687;1270;22454;-79
2023/08/16 02:48:20;;;;;;;9.40;8.40;;;;;;;21.34;56.50;100574.49;109726;1271;23916;-80
2023/08/16 02:51:20;;;;;;;10.50;8.60;;;;;;;21.29;56.74;100576.93;109888;1269;22035;-80
2023/08/16 02:54:17;;;;;;;18.30;9.90;;;;;;;21.26;56.83;100577.37;109681;1271;22129;-80
2023/08/16 02:57:18;;;;;;;10.20;8.50;;;;;;;21.23;56.97;100578.67;109498;1271;22788;-78
2023/08/16 03:00:48;;;;;;;14.00;9.20;;;;;;;21.20;57.09;100574.86;110296;1265;21985;-81
2023/08/16 03:03:58;;;;;;;10.80;9.70;;;;;;;21.16;57.17;100577.31;109744;1271;23740;-79
2023/08/16 03:07:05;;;;;;;12.60;9.90;;;;;;;21.12;57.25;100577.60;109657;1271;23034;-80
2023/08/16 03:09:46;;;;;;;11.70;9.40;;;;;;;21.11;57.37;100579.11;109680;1271;23657;-81
2023/08/16 03:12:26;;;;;;;10.00;9.10;;;;;;;21.11;57.46;100576.98;109290;1277;22519;-80
2023/08/16 03:15:08;;;;;;;10.70;9.40;;;;;;;21.11;57.58;100577.73;109083;1279;22026;-79
2023/08/16 03:17:54;;;;;;;10.40;8.90;;;;;;;21.10;57.65;100581.70;109010;1279;23856;-80
2023/08/16 03:20:30;;;;;;;13.80;10.20;;;;;;;21.09;57.66;100580.84;108954;1277;22069;-79
2023/08/16 03:23:36;;;;;;;15.70;9.60;;;;;;;21.05;57.79;100572.48;109001;1278;23079;-80
2023/08/16 03:26:26;;;;;;;16.00;9.10;;;;;;;21.06;57.86;100584.27;108841;1278;22062;-78
2023/08/16 03:29:19;;;;;;;13.10;9.90;;;;;;;21.05;57.91;100582.41;109607;1273;22052;-78
2023/08/16 03:32:05;;;;;;;11.40;10.00;;;;;;;21.04;58.10;100583.52;109537;1271;21986;-79
2023/08/16 03:34:54;;;;;;;;;;;;;;;;;;;;;
2023/08/16 03:37:37;;;;;;;11.10;10.00;;;;;;;21.04;58.15;100585.11;109866;1258;23055;-78
2023/08/16 03:40:34;;;;;;;11.60;9.90;;;;;;;21.06;58.26;100591.20;109755;1265;21990;-77
2023/08/16 03:43:19;;;;;;;13.90;10.30;;;;;;;21.05;58.31;100588.04;110443;1265;22008;-78
2023/08/16 03:46:01;;;;;;;14.90;10.00;;;;;;;21.05;58.31;100587.52;110345;1264;24307;-79
2023/08/16 03:48:37;;;;;;;11.60;10.50;;;;;;;21.08;58.36;100592.08;110422;1262;23701;-80
2023/08/16 03:51:34;;;;;;;13.60;10.90;;;;;;;21.11;58.35;100597.34;110611;1259;22004;-80
2023/08/16 03:54:20;;;;;;;13.20;10.10;;;;;;;21.14;58.42;100595.55;111043;1259;23703;-79
2023/08/16 03:57:09;;;;;;;11.60;9.90;;;;;;;21.16;58.34;100598.90;111002;1259;21979;-78
2023/08/16 03:59:51;;;;;;;;;;;;;;;;;;;;;
2023/08/16 04:02:43;;;;;;;14.20;11.00;;;;;;;21.11;58.46;100586.90;111053;1258;22309;-79
2023/08/16 04:06:04;;;;;;;11.90;10.70;;;;;;;21.16;58.51;100598.58;110381;1263;22007;-79
2023/08/16 04:09:10;;;;;;;14.90;11.30;;;;;;;21.15;58.59;100595.41;110525;1263;22740;-79
2023/08/16 04:12:35;;;;;;;13.00;10.90;;;;;;;21.16;58.69;100595.71;110240;1263;23608;-79
2023/08/16 04:15:33;;;;;;;13.10;11.40;;;;;;;21.17;58.72;100602.89;110605;1263;23712;-80
2023/08/16 04:19:02;;;;;;;21.70;11.20;;;;;;;21.19;58.86;100606.23;110019;1268;22043;-79
2023/08/16 04:22:55;;;;;;;;;;;;;;;;;;;;;
2023/08/16 04:26:07;;;;;;;16.00;11.40;;;;;;;21.30;58.92;100609.34;110521;1263;22372;-79
2023/08/16 04:33:31;;;;;;;11.50;10.40;;;;;;;21.30;58.88;100619.41;110060;1269;22979;-78
2023/08/16 04:36:19;;;;;;;10.70;9.70;;;;;;;21.33;59.01;100620.27;109516;1273;23032;-80
2023/08/16 04:39:48;;;;;;;12.60;11.50;;;;;;;21.38;59.02;100619.27;109156;1279;22017;-79
2023/08/16 04:42:45;;;;;;;11.10;10.00;;;;;;;21.48;59.00;100618.52;108864;1279;21971;-79
2023/08/16 04:45:58;;;;;;;11.20;10.00;;;;;;;21.55;58.84;100615.30;108554;1286;21997;-80
2023/08/16 04:49:36;;;;;;;;;;;;;;;;;;;;;
2023/08/16 04:52:48;;;;;;;13.40;11.20;;;;;;;21.68;58.82;100618.16;108619;1284;22026;-80
2023/08/16 04:55:54;;;;;;;11.70;10.00;;;;;;;21.76;58.89;100615.05;108125;1287;21971;-78
2023/08/16 04:59:49;;;;;;;19.10;11.60;;;;;;;21.85;58.55;100617.35;108188;1283;23058;-79
2023/08/16 05:03:35;;;;;;;;;;;;;;;;;;;;;
2023/08/16 05:07:01;;;;;;;12.00;10.20;;;;;;;22.07;58.29;100624.08;108592;1282;23338;-81
2023/08/16 05:10:19;;;;;;;11.70;10.50;;;;;;;22.17;58.25;100625.73;108669;1282;23755;-80
2023/08/16 05:13:27;;;;;;;11.90;10.80;;;;;;;22.28;58.06;100626.23;109048;1270;23036;-79
2023/08/16 05:16:15;;;;;;;;;;;;;;;;;;;;;
2023/08/16 05:19:21;;;;;;;11.20;9.90;;;;;;;22.52;57.84;100622.62;110293;1264;23697;-79
2023/08/16 05:21:57;;;;;;;10.00;9.10;;;;;;;22.66;57.56;100625.73;110459;1264;22649;-80
2023/08/16 05:24:46;;;;;;;;;;;;;;;22.84;57.58;100629.90;109962;1269;22731;-78
2023/08/16 05:27:58;;;;;;;18.80;11.00;;;;;;;23.01;57.79;100627.75;109822;1269;23119;-78
2023/08/16 05:30:40;;;;;;;16.70;10.30;;;;;;;23.20;56.87;100624.38;109525;1272;21991;-77
2023/08/16 05:33:26;;;;;;;10.70;9.60;;;;;;;23.34;56.46;100632.05;109274;1272;22734;-79
2023/08/16 05:36:35;;;;;;;11.40;10.40;;;;;;;23.50;56.33;100635.09;109730;1268;23803;-78
2023/08/16 05:39:46;;;;;;;11.20;10.20;;;;;;;23.68;55.93;100634.57;109875;1269;23893;-79
2023/08/16 05:42:56;;;;;;;13.70;10.10;;;;;;;23.89;55.77;100630.77;110058;1264;22067;-79
2023/08/16 05:45:47;;;;;;;12.00;10.80;;;;;;;24.12;55.39;100629.63;110340;1263;23911;-79
2023/08/16 05:48:29;;;;;;;15.60;11.00;;;;;;;24.35;54.91;100634.59;110333;1259;22876;-78
2023/08/16 05:51:29;;;;;;;;;;;;;;;;;;;;;
2023/08/16 05:54:11;;;;;;;13.30;10.30;;;;;;;24.80;54.10;100634.79;110401;1265;23594;-79
2023/08/16 05:56:51;;;;;;;11.70;10.50;;;;;;;25.00;53.58;100629.32;110168;1265;23687;-79
2023/08/16 05:59:50;;;;;;;;;;;;;;;25.19;53.30;100630.98;110220;1265;23011;-79
2023/08/16 06:03:14;;;;;;;12.10;10.30;;;;;;;25.34;53.24;100633.80;110455;1265;22985;-78
2023/08/16 06:06:18;;;;;;;10.90;9.90;;;;;;;25.60;52.85;100637.89;110312;1265;22452;-78
2023/08/16 06:09:19;;;;;;;14.90;10.40;;;;;;;25.97;52.89;100641.15;110542;1259;21967;-80
2023/08/16 06:12:08;;;;;;;11.90;10.50;;;;;;;26.35;52.18;100643.73;110639;1258;23548;-78
2023/08/16 06:15:29;;;;;;;16.30;12.30;;;;;;;26.78;51.62;100644.13;110762;1256;23116;-78
2023/08/16 06:18:52;;;;;;;14.70;10.00;;;;;;;27.19;50.63;100646.02;109320;1275;21982;-79
2023/08/16 06:21:58;;;;;;;13.10;9.80;;;;;;;27.63;49.72;100648.77;108886;1277;21992;-79
2023/08/16 06:25:46;;;;;;;13.30;9.40;;;;;;;28.04;48.71;100647.45;108150;1291;22016;-78
2023/08/16 06:28:38;;;;;;;11.10;8.80;;;;;;;28.41;47.88;100645.77;108028;1291;23062;-78
2023/08/16 06:31:44;;;;;;;;;;;;;;;;;;;;;
2023/08/16 06:34:38;;;;;;;8.90;7.40;;;;;;;29.29;46.37;100646.67;108058;1291;22151;-80
2023/08/16 06:38:01;;;;;;;;;;;;;;;;;;;;;
2023/08/16 06:41:02;;;;;;;16.20;7.30;;;;;;;30.13;44.37;100640.95;108563;1282;24395;-77
2023/08/16 06:45:18;;;;;;;8.70;6.50;;;;;;;30.54;42.89;100636.89;108552;1282;24695;-81
2023/08/16 06:49:26;;;;;;;11.20;7.10;;;;;;;30.81;41.66;100639.46;108577;1279;22022;-78
2023/08/16 06:57:15;;;;;;;10.40;6.60;;;;;;;31.69;39.92;100645.16;108041;1292;22805;-80
2023/08/16 07:00:04;;;;;;;6.70;5.60;;;;;;;31.99;39.48;100643.24;107913;1296;22029;-79
2023/08/16 07:04:22;;;;;;;;;;;;;;;;;;;;;
2023/08/16 07:09:22;;;;;;;;;;;;;;;;;;;;;
2023/08/16 07:12:20;;;;;;;16.80;3.20;;;;;;;33.13;37.30;100648.31;107466;1288;23871;-79
2023/08/16 07:16:20;;;;;;;;;;;;;;;;;;;;;
2023/08/16 07:34:42;;;;;;;;;;;;;;;;;;;;;
2023/08/16 07:39:47;;;;;;;;;;;;;;;;;;;;;
2023/08/16 07:43:52;;;;;;;6.50;5.10;;;;;;;35.37;32.15;100662.87;110226;1261;21973;-79
2023/08/16 07:47:50;;;;;;;8.60;5.40;;;;;;;35.41;32.50;100661.51;110768;1261;22836;-78
2023/08/16 07:52:32;;;;;;;;;;;;;;;;;;;;;
2023/08/16 07:55:47;;;;;;;14.70;4.70;;;;;;;35.32;31.45;100658.88;110209;1258;24474;-78
2023/08/16 07:59:36;;;;;;;7.50;5.20;;;;;;;35.16;31.49;100655.46;110152;1266;22026;-80
2023/08/16 08:04:00;;;;;;;;;;;;;;;;;;;;;
2023/08/16 08:07:21;;;;;;;9.10;4.30;;;;;;;35.43;31.52;100664.71;109532;1273;22131;-78
2023/08/16 08:21:33;;;;;;;;;;;;;;;;;;;;;
2023/08/16 08:25:26;;;;;;;7.20;4.70;;;;;;;36.40;28.84;100671.38;107807;1245;6052153;-78
2023/08/16 08:29:45;;;;;;;6.20;4.80;;;;;;;36.21;29.42;100671.98;111972;1249;22301;-79
2023/08/16 08:33:36;;;;;;;10.50;5.10;;;;;;;36.02;29.98;100672.27;110994;1260;22003;-78
2023/08/16 08:37:44;;;;;;;13.40;5.00;;;;;;;36.01;30.41;100671.27;111328;1255;21978;-79
2023/08/16 08:42:01;;;;;;;;;;;;;;;;;;;;;
2023/08/16 08:45:49;;;;;;;8.30;4.80;;;;;;;36.02;30.75;100677.45;109619;1272;22301;-81
2023/08/16 08:49:15;;;;;;;11.50;5.10;;;;;;;35.91;30.80;100679.78;109495;1273;21994;-79
2023/08/16 08:53:20;;;;;;;;;;;;;;;;;;;;;
2023/08/16 08:56:20;;;;;;;;;;;;;;;;;;;;;
2023/08/16 08:59:38;;;;;;;6.80;5.30;;;;;;;35.69;31.54;100683.02;108831;1278;22141;-80
2023/08/16 09:02:43;;;;;;;;;;;;;;;;;;;;;
2023/08/16 09:05:37;;;;;;;9.00;5.20;;;;;;;35.82;30.94;100685.01;109115;1278;22415;-80
2023/08/16 09:08:42;;;;;;;9.00;5.20;;;;;;;35.92;30.95;100692.64;109067;1275;23623;-78
2023/08/16 09:11:39;;;;;;;6.30;4.40;;;;;;;36.01;30.97;100693.45;109136;1275;23835;-77
2023/08/16 09:14:49;;;;;;;11.30;4.80;;;;;;;36.04;30.42;100690.07;109431;1260;23752;-78
2023/08/16 09:18:15;;;;;;;;;;;;;;;;;;;;;
2023/08/16 09:21:28;;;;;;;5.60;4.40;;;;;;;36.05;30.57;100695.20;110396;1261;21975;-81
2023/08/16 09:24:07;;;;;;;;;;;;;;;36.02;30.45;100696.80;110805;1261;22104;-78
2023/08/16 09:26:48;;;;;;;13.80;5.30;;;;;;;35.83;30.85;100698.08;110652;1260;21955;-78
2023/08/16 09:29:33;;;;;;;8.90;4.70;;;;;;;35.83;30.74;100698.23;110154;1262;21989;-77
2023/08/16 09:32:27;;;;;;;9.90;3.90;;;;;;;35.83;30.28;100700.20;110790;1250;23729;-77
2023/08/16 09:35:46;;;;;;;15.60;5.20;;;;;;;35.85;30.48;100701.23;111431;1250;21982;-77
2023/08/16 09:38:52;;;;;;;15.70;5.10;;;;;;;35.86;30.82;100705.41;111544;1250;22297;-77
2023/08/16 09:42:05;;;;;;;;;;;;;;;35.84;30.26;100705.96;111576;1250;21995;-79
2023/08/16 09:44:54;;;;;;;4.80;4.40;;;;;;;35.71;30.28;100704.27;111733;1250;21966;-77
2023/08/16 09:47:50;;;;;;;6.80;5.40;;;;;;;35.62;30.65;100704.19;111770;1244;21966;-77
2023/08/16 09:50:42;;;;;;;6.40;5.00;;;;;;;35.57;30.96;100700.16;112128;1238;21948;-77
2023/08/16 09:53:49;;;;;;;7.70;5.00;;;;;;;35.59;31.64;100702.24;113237;1233;23285;-78
2023/08/16 09:56:43;;;;;;;8.80;5.00;;;;;;;35.61;31.51;100702.41;113551;1233;22999;-78
2023/08/16 09:59:39;;;;;;;12.90;5.00;;;;;;;35.61;31.66;100702.89;113282;1233;23615;-77
2023/08/16 10:02:41;;;;;;;6.50;5.10;;;;;;;35.60;31.50;100705.03;113421;1233;22396;-79
2023/08/16 10:05:44;;;;;;;9.60;5.50;;;;;;;35.54;31.42;100705.02;113337;1233;21934;-78
2023/08/16 10:08:38;;;;;;;;;;;;;;;;;;;;;
2023/08/16 10:11:28;;;;;;;7.60;5.50;;;;;;;35.27;31.33;100695.79;112959;1238;23121;-77
2023/08/16 10:14:37;;;;;;;12.10;6.00;;;;;;;35.22;31.92;100700.23;112874;1238;23679;-78
2023/08/16 10:18:34;;;;;;;6.90;5.60;;;;;;;35.29;32.33;100699.58;113431;1238;21951;-80
2023/08/16 10:25:45;;;;;;;5.90;5.20;;;;;;;35.36;32.30;100697.01;111320;1255;23700;-79
2023/08/16 10:28:39;;;;;;;8.90;5.70;;;;;;;35.39;32.31;100700.02;111144;1254;22010;-79
2023/08/16 10:31:48;;;;;;;10.40;5.80;;;;;;;35.42;32.45;100702.96;111065;1258;21997;-79
2023/08/16 10:34:58;;;;;;;8.10;5.70;;;;;;;35.31;32.62;100701.70;111545;1257;22669;-78
2023/08/16 10:37:39;;;;;;;12.80;6.70;;;;;;;35.27;32.50;100702.05;111434;1257;21974;-80
2023/08/16 10:41:00;;;;;;;9.70;6.10;;;;;;;35.18;32.85;100701.27;110351;1262;21949;-78
2023/08/16 10:43:36;;;;;;;8.30;6.10;;;;;;;35.13;32.85;100703.18;110452;1261;23044;-80
2023/08/16 10:46:26;;;;;;;12.40;5.20;;;;;;;35.08;32.82;100704.59;110393;1264;24161;-79
2023/08/16 10:49:10;;;;;;;6.00;5.10;;;;;;;35.02;32.54;100705.65;110621;1260;21977;-79
2023/08/16 10:52:23;;;;;;;8.00;4.90;;;;;;;34.94;32.67;100702.00;111109;1257;22046;-81
2023/08/16 10:55:35;;;;;;;7.20;6.00;;;;;;;34.91;33.03;100696.98;111621;1253;21993;-80
2023/08/16 10:58:50;;;;;;;6.70;5.90;;;;;;;34.89;33.34;100698.70;112179;1246;21980;-79
2023/08/16 11:02:02;;;;;;;9.60;5.90;;;;;;;34.83;33.62;100693.36;112086;1246;22088;-79
2023/08/16 11:05:23;;;;;;;21.20;6.60;;;;;;;34.80;33.79;100690.52;111685;1253;21947;-78
2023/08/16 11:08:05;;;;;;;6.30;5.70;;;;;;;34.76;33.83;100693.49;110892;1256;21969;-80
2023/08/16 11:11:35;;;;;;;;;;;;;;;;;;;;;
2023/08/16 11:14:37;;;;;;;;;;;;;;;;;;;;;
2023/08/16 11:22:05;;;;;;;7.20;5.30;;;;;;;34.41;34.38;100701.08;111915;1254;21989;-78
2023/08/16 11:26:21;;;;;;;6.20;5.50;;;;;;;34.42;34.21;100699.26;111830;1251;21976;-82
2023/08/16 11:30:12;;;;;;;9.90;5.70;;;;;;;34.40;34.31;100696.50;110163;1271;21989;-80
2023/08/16 11:34:13;;;;;;;8.90;6.00;;;;;;;34.31;34.39;100691.02;110099;1270;23797;-80
2023/08/16 11:37:55;;;;;;;6.50;5.90;;;;;;;34.21;34.80;100691.92;109358;1275;22008;-79
2023/08/16 11:41:20;;;;;;;;;;;;;;;;;;;;;
2023/08/16 11:44:49;;;;;;;9.70;5.50;;;;;;;34.09;35.43;100691.87;110405;1268;23144;-80
2023/08/16 11:49:12;;;;;;;6.70;6.00;;;;;;;34.14;35.49;100694.46;109555;1276;23774;-82
2023/08/16 11:53:28;;;;;;;12.30;5.90;;;;;;;34.14;35.57;100687.60;109085;1285;22025;-82
2023/08/16 12:06:01;;;;;;;6.40;5.80;;;;;;;34.38;35.59;100681.99;109471;1281;21995;-81
2023/08/16 12:15:05;;;;;;;14.20;6.30;;;;;;;34.20;35.65;100674.75;104637;1294;5327615;-84
2023/08/16 12:19:32;;;;;;;11.80;7.00;;;;;;;34.00;35.52;100670.92;108198;1299;22020;-84
2023/08/16 12:22:34;;;;;;;15.50;6.00;;;;;;;33.76;35.45;100674.56;107825;1302;22021;-81
2023/08/16 12:26:28;;;;;;;9.80;6.90;;;;;;;33.58;35.90;100673.34;107882;1302;21867;-83
2023/08/16 12:29:46;;;;;;;9.40;6.40;;;;;;;33.43;36.56;100667.70;107098;1306;22032;-82
2023/08/16 12:44:03;;;;;;;12.60;6.40;;;;;;;34.58;34.10;100668.82;108711;1287;548089;-78
2023/08/16 12:47:15;;;;;;;7.60;6.90;;;;;;;34.65;33.47;100663.11;106261;1267;5767084;-82
2023/08/16 12:55:49;;;;;;;;;;;;;;;;;;;;;
2023/08/16 12:59:22;;;;;;;;;;;;;;;;;;;;;
2023/08/16 13:03:08;;;;;;;;;;;;;;;;;;;;;
2023/08/16 13:06:26;;;;;;;;;;;;;;;;;;;;;
2023/08/16 13:10:31;;;;;;;7.80;5.70;;;;;;;33.69;35.82;100647.90;109713;1282;21623;-78
2023/08/16 13:13:21;;;;;;;6.40;5.80;;;;;;;33.69;35.33;100647.17;108601;1289;23111;-79
2023/08/16 13:16:44;;;;;;;;;;;;;;;;;;;;;
2023/08/16 13:20:27;;;;;;;;;;;;;;;;;;;;;
2023/08/16 13:23:48;;;;;;;;;;;;;;;;;;;;;
2023/08/16 13:27:17;;;;;;;;;;;;;;;;;;;;;
2023/08/16 13:31:39;;;;;;;;;;;;;;;;;;;;;
2023/08/16 13:35:08;;;;;;;;;;;;;;;;;;;;;
2023/08/16 13:39:02;;;;;;;9.80;5.50;;;;;;;33.51;34.38;100649.88;108285;1292;21975;-78
2023/08/16 13:41:55;;;;;;;;;;;;;;;33.45;33.96;100645.64;107453;1302;22757;-79
2023/08/16 13:44:58;;;;;;;;;;;;;;;33.42;33.99;100642.22;107556;1302;23785;-81
2023/08/16 13:59:46;;;;;;;;;;;;;;;;;;;;;
2023/08/16 14:03:43;;;;;;;;;;;;;;;;;;;;;
2023/08/16 14:08:17;;;;;;;;;;;;;;;;;;;;;
2023/08/16 14:11:37;;;;;;;9.00;6.00;;;;;;;33.55;33.42;100635.66;112897;1243;21972;-79
2023/08/16 14:15:06;;;;;;;7.40;5.50;;;;;;;33.45;33.98;100634.27;112584;1242;21944;-78
2023/08/16 14:19:03;;;;;;;;;;;;;;;;;;;;;
2023/08/16 14:22:00;;;;;;;9.40;6.10;;;;;;;33.35;34.77;100629.95;111955;1251;21957;-79
2023/08/16 14:25:51;;;;;;;7.80;5.80;;;;;;;33.32;34.85;100624.73;111639;1254;22715;-80
2023/08/16 14:33:23;;;;;;;;;;;;;;;;;;;;;
2023/08/16 14:36:40;;;;;;;9.60;5.50;;;;;;;33.24;35.13;100621.65;109765;1269;21991;-81
2023/08/16 14:40:26;;;;;;;5.40;4.90;;;;;;;33.23;35.13;100619.98;109791;1265;23688;-79
2023/08/16 14:43:46;;;;;;;12.50;6.10;;;;;;;33.21;35.10;100613.91;109502;1270;22010;-79
2023/08/16 14:47:07;;;;;;;13.10;5.60;;;;;;;33.21;35.16;100613.63;109711;1269;22287;-78
2023/08/16 14:50:01;;;;;;;7.50;5.90;;;;;;;33.22;34.90;100612.95;109994;1261;24368;-80
2023/08/16 14:53:33;;;;;;;13.50;6.20;;;;;;;33.18;34.87;100611.64;110772;1260;21992;-80
2023/08/16 14:56:29;;;;;;;9.50;6.10;;;;;;;33.16;34.65;100612.50;110907;1260;21992;-78
2023/08/16 14:59:55;;;;;;;7.10;5.70;;;;;;;33.11;34.65;100615.09;110159;1267;22044;-79
2023/08/16 15:02:56;;;;;;;7.50;5.60;;;;;;;33.05;34.67;100612.52;109788;1267;22136;-78
2023/08/16 15:07:13;;;;;;;11.90;6.50;;;;;;;33.04;34.86;100612.88;109735;1267;22385;-82
2023/08/16 15:10:09;;;;;;;11.90;6.70;;;;;;;33.06;35.19;100609.77;110901;1254;23313;-79
2023/08/16 15:13:34;;;;;;;7.90;6.30;;;;;;;33.12;34.94;100606.86;110426;1266;22015;-80
2023/08/16 15:16:15;;;;;;;;;;;;;;;33.14;34.60;100608.92;109849;1267;23404;-80
2023/08/16 15:19:07;;;;;;;12.50;6.00;;;;;;;33.07;34.83;100611.20;110010;1260;23737;-80
2023/08/16 15:22:35;;;;;;;7.00;5.50;;;;;;;33.10;34.86;100611.91;110904;1263;21952;-82
2023/08/16 15:25:33;;;;;;;8.80;7.00;;;;;;;33.13;34.75;100607.20;111307;1255;23028;-80
2023/08/16 15:28:42;;;;;;;12.20;6.30;;;;;;;33.15;34.79;100601.56;111024;1255;23619;-77
2023/08/16 15:31:31;;;;;;;8.60;5.80;;;;;;;33.16;34.63;100600.15;111539;1249;21986;-79
2023/08/16 15:34:33;;;;;;;7.00;5.60;;;;;;;33.17;34.48;100598.41;112018;1244;23617;-81
2023/08/16 15:38:05;;;;;;;;;;;;;;;;;;;;;
2023/08/16 15:40:49;;;;;;;9.80;6.30;;;;;;;33.14;34.56;100593.19;113286;1234;21943;-78
2023/08/16 15:43:50;;;;;;;;;;;;;;;;;;;;;
2023/08/16 15:47:04;;;;;;;6.10;5.60;;;;;;;32.98;35.22;100582.27;112927;1241;23293;-78
2023/08/16 15:50:44;;;;;;;;;;;;;;;;;;;;;
2023/08/16 15:54:10;;;;;;;;;;;;;;;;;;;;;
2023/08/16 15:57:19;;;;;;;6.40;5.40;;;;;;;32.81;35.22;100583.09;113016;1241;21958;-78
2023/08/16 16:00:55;;;;;;;10.00;5.20;;;;;;;32.76;35.28;100583.30;112777;1241;22855;-78
2023/08/16 16:04:29;;;;;;;15.90;5.40;;;;;;;32.73;35.25;100583.41;112055;1241;24341;-78
2023/08/16 16:07:45;;;;;;;;;;;;;;;;;;;;;
2023/08/16 16:12:03;;;;;;;7.50;5.20;;;;;;;32.59;35.29;100592.73;111553;1255;22383;-79
2023/08/16 16:15:55;;;;;;;17.30;5.20;;;;;;;32.53;35.29;100598.91;111359;1255;22078;-78
2023/08/16 16:19:58;;;;;;;8.70;5.10;;;;;;;32.48;35.62;100603.77;110948;1258;23718;-80
2023/08/16 16:23:17;;;;;;;;;;;;;;;;;;;;;
2023/08/16 16:27:23;;;;;;;;;;;;;;;;;;;;;
2023/08/16 16:31:13;;;;;;;11.40;5.60;;;;;;;32.35;36.41;100587.84;109359;1277;22778;-79
2023/08/16 16:37:57;;;;;;;7.30;5.60;;;;;;;32.41;36.56;100601.65;108588;1284;22007;-77
2023/08/16 16:40:31;;;;;;;7.60;6.90;;;;;;;32.52;36.16;100607.30;108507;1284;22265;-79
2023/08/16 16:43:32;;;;;;;7.40;5.70;;;;;;;32.59;35.85;100609.73;108328;1284;21995;-79
2023/08/16 16:46:23;;;;;;;17.60;6.90;;;;;;;32.64;35.54;100610.04;108618;1280;21869;-79
2023/08/16 16:53:28;;;;;;;8.90;5.50;;;;;;;32.58;36.08;100598.25;108015;1289;544754;-79
2023/08/16 16:56:31;;;;;;;18.10;8.60;;;;;;;32.27;36.78;100600.31;111160;1261;21963;-80
2023/08/16 16:59:36;;;;;;;12.40;6.90;;;;;;;32.02;37.30;100600.98;110507;1261;21969;-77
2023/08/16 17:03:39;;;;;;;9.50;5.70;;;;;;;31.67;37.62;100606.34;110202;1267;21990;-78
2023/08/16 17:07:01;;;;;;;8.80;6.10;;;;;;;31.50;37.60;100610.14;103073;1273;8459830;-77
2023/08/16 17:10:28;;;;;;;21.00;5.80;;;;;;;31.36;38.09;100611.11;108771;1280;23361;-78
2023/08/16 17:13:08;;;;;;;9.40;6.50;;;;;;;31.33;38.38;100609.30;108960;1271;23049;-77
2023/08/16 17:16:07;;;;;;;;;;;;;;;;;;;;;
2023/08/16 17:19:57;;;;;;;8.00;6.40;;;;;;;31.14;38.65;100598.93;108612;1283;22511;-78
2023/08/16 17:23:21;;;;;;;9.30;6.30;;;;;;;31.07;38.92;100595.52;108746;1283;22047;-77
2023/08/16 17:43:16;;;;;;;9.90;6.90;;;;;;;31.48;39.60;100578.23;107330;1254;22058;-79
2023/08/16 17:46:28;;;;;;;10.40;6.80;;;;;;;31.12;40.67;100581.48;110443;1267;23120;-79
2023/08/16 17:50:09;;;;;;;13.30;7.30;;;;;;;30.94;41.07;100597.11;109544;1272;22032;-79
2023/08/16 17:53:58;;;;;;;7.40;6.40;;;;;;;30.75;41.43;100598.64;110831;1260;21987;-79
2023/08/16 18:08:03;;;;;;;11.30;6.20;;;;;;;31.53;40.55;100604.61;110504;1262;548470;-79
2023/08/16 18:11:56;;;;;;;10.50;6.50;;;;;;;31.37;40.97;100624.98;109230;1234;5302780;-78
2023/08/16 18:15:11;;;;;;;14.10;7.30;;;;;;;30.86;41.82;100631.64;113357;1234;21942;-79
2023/08/16 18:19:00;;;;;;;;;;;;;;;;;;;;;
2023/08/16 18:27:03;;;;;;;8.20;7.40;;;;;;;30.22;43.54;100639.86;111225;1256;21974;-78
2023/08/16 18:30:49;;;;;;;8.90;7.10;;;;;;;30.11;43.77;100640.75;111131;1256;22430;-79
2023/08/16 18:34:18;;;;;;;;;;;;;;;;;;;;;
2023/08/16 18:37:40;;;;;;;10.50;8.00;;;;;;;29.91;44.43;100643.04;111243;1253;22031;-79
2023/08/16 18:41:38;;;;;;;13.50;11.20;;;;;;;29.82;44.67;100644.00;111747;1252;22039;-80
2023/08/16 18:45:44;;;;;;;10.50;9.40;;;;;;;29.73;45.14;100646.42;112465;1244;22011;-78
2023/08/16 18:50:01;;;;;;;;;;;;;;;;;;;;;
2023/08/16 18:53:34;;;;;;;9.20;8.10;;;;;;;29.54;45.69;100658.27;111235;1251;22012;-79
2023/08/16 18:56:28;;;;;;;;;;;;;;;;;;;;;